createdAt,value
2019-05-20T00:00:38.058Z,98.822021
2019-05-20T00:01:47.647Z,98.925781
2019-05-20T00:02:57.155Z,98.925781
2019-05-20T00:04:06.703Z,98.925781
2019-05-20T00:05:16.262Z,98.925781
2019-05-20T00:06:25.811Z,98.925781
2019-05-20T00:07:35.345Z,98.925781
2019-05-20T00:08:44.882Z,98.925781
2019-05-20T00:09:54.417Z,99.023438
2019-05-20T00:11:04.046Z,99.023438
2019-05-20T00:12:13.569Z,99.127197
2019-05-20T00:13:23.085Z,99.127197
2019-05-20T00:14:32.603Z,99.127197
2019-05-20T00:15:42.179Z,99.230957
2019-05-20T00:16:51.767Z,99.230957
2019-05-20T00:18:01.294Z,99.230957
2019-05-20T00:19:10.797Z,99.230957
2019-05-20T00:20:20.336Z,99.230957
2019-05-20T00:21:29.912Z,99.230957
2019-05-20T00:22:39.436Z,99.230957
2019-05-20T00:23:48.969Z,99.230957
2019-05-20T00:24:58.496Z,99.230957
2019-05-20T00:26:08.044Z,99.182129
2019-05-20T00:27:17.629Z,99.023438
2019-05-20T00:28:27.164Z,98.925781
2019-05-20T00:29:36.692Z,98.822021
2019-05-20T00:30:46.235Z,98.718262
2019-05-20T00:31:55.784Z,98.516846
2019-05-20T00:33:05.294Z,98.413086
2019-05-20T00:34:14.828Z,98.413086
2019-05-20T00:35:25.353Z,98.468018
2019-05-20T00:36:34.969Z,98.266602
2019-05-20T00:37:44.434Z,98.00415
2019-05-20T00:38:53.951Z,97.961426
2019-05-20T00:40:03.486Z,97.900391
2019-05-20T00:41:13.020Z,97.961426
2019-05-20T00:42:22.564Z,98.059082
2019-05-20T00:43:32.111Z,98.162842
2019-05-20T00:44:41.638Z,98.162842
2019-05-20T00:45:51.170Z,98.162842
2019-05-20T00:47:00.718Z,98.162842
2019-05-20T00:48:10.263Z,98.10791
2019-05-20T00:49:19.789Z,98.10791
2019-05-20T00:50:29.305Z,97.961426
2019-05-20T00:51:38.920Z,97.900391
2019-05-20T00:52:48.435Z,97.961426
2019-05-20T00:53:57.984Z,97.857666
2019-05-20T00:55:07.512Z,97.857666
2019-05-20T00:56:17.061Z,97.753906
2019-05-20T00:57:26.601Z,97.650146
2019-05-20T00:58:36.156Z,97.55249
2019-05-20T00:59:45.674Z,97.55249
2019-05-20T01:00:55.196Z,97.44873
2019-05-20T01:02:04.836Z,97.44873
2019-05-20T01:03:14.280Z,97.143555
2019-05-20T01:04:23.803Z,97.241211
2019-05-20T01:05:33.315Z,97.344971
2019-05-20T01:06:42.847Z,97.344971
2019-05-20T01:07:52.387Z,97.44873
2019-05-20T01:09:01.896Z,97.44873
2019-05-20T01:10:11.420Z,97.55249
2019-05-20T01:11:20.930Z,97.55249
2019-05-20T01:12:30.484Z,97.44873
2019-05-20T01:13:39.999Z,97.344971
2019-05-20T01:14:49.511Z,97.344971
2019-05-20T01:15:59.064Z,97.344971
2019-05-20T01:17:08.622Z,97.44873
2019-05-20T01:18:18.135Z,97.55249
2019-05-20T01:19:27.680Z,97.55249
2019-05-20T01:20:37.211Z,97.55249
2019-05-20T01:21:46.726Z,97.55249
2019-05-20T01:22:56.291Z,97.55249
2019-05-20T01:24:05.835Z,97.55249
2019-05-20T01:25:15.353Z,97.44873
2019-05-20T01:26:24.873Z,97.44873
2019-05-20T01:27:34.417Z,97.55249
2019-05-20T01:28:43.937Z,97.44873
2019-05-20T01:29:53.476Z,97.44873
2019-05-20T01:31:03.012Z,97.44873
2019-05-20T01:32:12.557Z,97.55249
2019-05-20T01:33:22.122Z,97.44873
2019-05-20T01:34:31.628Z,97.344971
2019-05-20T01:35:41.156Z,97.44873
2019-05-20T01:36:50.691Z,97.344971
2019-05-20T01:38:00.257Z,97.344971
2019-05-20T01:39:09.788Z,97.344971
2019-05-20T01:40:19.292Z,97.344971
2019-05-20T01:41:28.816Z,97.241211
2019-05-20T01:42:38.404Z,97.290039
2019-05-20T01:43:47.949Z,97.393799
2019-05-20T01:44:57.477Z,97.186279
2019-05-20T01:46:07.308Z,97.186279
2019-05-20T01:47:16.526Z,97.393799
2019-05-20T01:48:26.066Z,97.491455
2019-05-20T01:49:35.579Z,97.491455
2019-05-20T01:50:45.105Z,97.491455
2019-05-20T01:51:54.625Z,97.491455
2019-05-20T01:53:04.181Z,97.595215
2019-05-20T01:54:13.724Z,97.491455
2019-05-20T01:55:23.253Z,97.491455
2019-05-20T01:56:32.785Z,97.595215
2019-05-20T01:57:42.328Z,97.393799
2019-05-20T01:58:51.889Z,97.393799
2019-05-20T02:00:01.384Z,97.491455
2019-05-20T02:01:10.895Z,97.393799
2019-05-20T02:02:20.438Z,97.393799
2019-05-20T02:03:31.970Z,97.393799
2019-05-20T02:04:39.496Z,97.393799
2019-05-20T02:05:49.025Z,97.290039
2019-05-20T02:06:58.551Z,97.186279
2019-05-20T02:08:08.141Z,97.08252
2019-05-20T02:09:17.672Z,97.08252
2019-05-20T02:10:27.188Z,97.08252
2019-05-20T02:11:36.715Z,97.290039
2019-05-20T02:12:46.254Z,96.881104
2019-05-20T02:13:55.831Z,96.679688
2019-05-20T02:15:05.359Z,96.630859
2019-05-20T02:16:14.889Z,96.5271
2019-05-20T02:17:24.443Z,96.472168
2019-05-20T02:18:34.025Z,96.5271
2019-05-20T02:19:43.529Z,96.429443
2019-05-20T02:20:53.073Z,96.429443
2019-05-20T02:22:02.626Z,96.575928
2019-05-20T02:23:12.217Z,96.5271
2019-05-20T02:24:21.746Z,96.368408
2019-05-20T02:25:31.269Z,96.5271
2019-05-20T02:26:40.782Z,96.5271
2019-05-20T02:27:50.311Z,96.679688
2019-05-20T02:28:59.857Z,96.777344
2019-05-20T02:30:09.401Z,96.881104
2019-05-20T02:31:18.954Z,97.08252
2019-05-20T02:32:28.452Z,97.186279
2019-05-20T02:33:50.529Z,97.08252
2019-05-20T02:34:48.497Z,97.290039
2019-05-20T02:35:58.024Z,97.08252
2019-05-20T02:37:07.560Z,97.186279
2019-05-20T02:38:17.147Z,97.290039
2019-05-20T02:39:27.696Z,97.491455
2019-05-20T02:40:37.313Z,97.595215
2019-05-20T02:41:46.848Z,97.595215
2019-05-20T02:42:56.417Z,97.698975
2019-05-20T02:44:06.012Z,97.900391
2019-05-20T02:45:15.523Z,98.00415
2019-05-20T02:46:25.044Z,98.10791
2019-05-20T02:47:34.597Z,98.205566
2019-05-20T02:48:44.252Z,98.10791
2019-05-20T02:49:53.793Z,98.10791
2019-05-20T02:51:03.302Z,98.205566
2019-05-20T02:52:12.828Z,98.205566
2019-05-20T02:53:22.373Z,98.309326
2019-05-20T02:54:31.924Z,98.309326
2019-05-20T02:55:41.453Z,98.205566
2019-05-20T02:56:50.993Z,98.309326
2019-05-20T02:58:00.534Z,98.358154
2019-05-20T02:59:10.096Z,98.455811
2019-05-20T03:00:19.625Z,98.309326
2019-05-20T03:01:29.138Z,98.413086
2019-05-20T03:02:38.659Z,98.455811
2019-05-20T03:03:48.207Z,98.55957
2019-05-20T03:04:58.730Z,98.516846
2019-05-20T03:06:08.250Z,98.55957
2019-05-20T03:07:17.778Z,98.413086
2019-05-20T03:08:27.287Z,98.413086
2019-05-20T03:09:36.835Z,98.413086
2019-05-20T03:10:46.349Z,98.516846
2019-05-20T03:11:55.857Z,98.614502
2019-05-20T03:13:05.361Z,98.614502
2019-05-20T03:14:14.934Z,98.614502
2019-05-20T03:15:24.458Z,98.718262
2019-05-20T03:16:33.983Z,98.822021
2019-05-20T03:17:43.505Z,98.718262
2019-05-20T03:18:53.037Z,98.718262
2019-05-20T03:20:02.596Z,98.718262
2019-05-20T03:21:12.118Z,98.718262
2019-05-20T03:22:21.660Z,98.718262
2019-05-20T03:23:31.195Z,98.614502
2019-05-20T03:24:40.756Z,98.718262
2019-05-20T03:25:50.296Z,98.718262
2019-05-20T03:26:59.846Z,98.614502
2019-05-20T03:28:09.379Z,98.614502
2019-05-20T03:29:18.967Z,98.614502
2019-05-20T03:30:28.517Z,98.413086
2019-05-20T03:31:38.038Z,98.516846
2019-05-20T03:32:47.558Z,98.516846
2019-05-20T03:33:57.107Z,98.516846
2019-05-20T03:35:06.663Z,98.516846
2019-05-20T03:36:16.190Z,98.413086
2019-05-20T03:37:25.707Z,98.516846
2019-05-20T03:38:35.224Z,98.516846
2019-05-20T03:39:44.780Z,98.468018
2019-05-20T03:40:54.310Z,98.468018
2019-05-20T03:42:03.839Z,98.413086
2019-05-20T03:43:13.426Z,98.516846
2019-05-20T03:44:22.986Z,98.468018
2019-05-20T03:45:32.518Z,98.468018
2019-05-20T03:46:42.063Z,98.571777
2019-05-20T03:47:51.568Z,98.571777
2019-05-20T03:49:01.116Z,98.571777
2019-05-20T03:50:10.655Z,98.468018
2019-05-20T03:51:20.214Z,98.675537
2019-05-20T03:52:29.735Z,98.571777
2019-05-20T03:53:39.249Z,98.571777
2019-05-20T03:54:48.809Z,98.773193
2019-05-20T03:55:58.359Z,98.773193
2019-05-20T03:57:07.877Z,98.876953
2019-05-20T03:58:17.412Z,98.876953
2019-05-20T03:59:27.013Z,98.980713
2019-05-20T04:00:36.526Z,99.078369
2019-05-20T04:01:46.064Z,99.182129
2019-05-20T04:02:55.614Z,99.285889
2019-05-20T04:04:05.111Z,99.285889
2019-05-20T04:05:14.662Z,99.389648
2019-05-20T04:06:24.198Z,99.389648
2019-05-20T04:07:33.741Z,99.389648
2019-05-20T04:08:43.273Z,99.487305
2019-05-20T04:09:52.839Z,99.487305
2019-05-20T04:11:02.407Z,99.591064
2019-05-20T04:12:11.939Z,99.694824
2019-05-20T04:13:21.478Z,99.591064
2019-05-20T04:14:31.025Z,99.694824
2019-05-20T04:15:40.879Z,99.694824
2019-05-20T04:16:50.401Z,99.79248
2019-05-20T04:17:59.913Z,99.89624
2019-05-20T04:19:09.432Z,99.993896
2019-05-20T04:20:19.044Z,99.993896
2019-05-20T04:21:28.618Z,99.993896
2019-05-20T04:22:38.138Z,99.993896
2019-05-20T04:23:47.684Z,99.993896
2019-05-20T04:24:58.242Z,99.993896
2019-05-20T04:26:07.778Z,99.993896
2019-05-20T04:27:17.305Z,99.993896
2019-05-20T04:28:26.837Z,99.993896
2019-05-20T04:29:36.388Z,99.993896
2019-05-20T04:30:45.954Z,99.993896
2019-05-20T04:31:55.470Z,99.993896
2019-05-20T04:33:05.017Z,99.993896
2019-05-20T04:34:14.553Z,99.993896
2019-05-20T04:35:24.069Z,99.993896
2019-05-20T04:36:33.671Z,99.993896
2019-05-20T04:37:43.213Z,99.993896
2019-05-20T04:38:52.769Z,99.993896
2019-05-20T04:40:02.309Z,99.993896
2019-05-20T04:41:11.839Z,99.993896
2019-05-20T04:42:21.427Z,99.993896
2019-05-20T04:43:30.952Z,99.993896
2019-05-20T04:44:40.503Z,99.993896
2019-05-20T04:45:50.057Z,99.993896
2019-05-20T04:46:59.610Z,99.993896
2019-05-20T04:48:12.774Z,99.993896
2019-05-20T04:49:18.646Z,99.993896
2019-05-20T04:50:28.196Z,99.993896
2019-05-20T04:51:37.783Z,99.993896
2019-05-20T04:52:47.325Z,99.993896
2019-05-20T04:53:56.883Z,99.993896
2019-05-20T04:55:06.403Z,99.993896
2019-05-20T04:56:15.965Z,99.993896
2019-05-20T04:57:25.510Z,99.993896
2019-05-20T04:58:35.030Z,99.993896
2019-05-20T04:59:44.583Z,99.993896
2019-05-20T05:00:54.246Z,99.993896
2019-05-20T05:02:03.770Z,99.993896
2019-05-20T05:03:13.332Z,99.993896
2019-05-20T05:04:22.873Z,99.993896
2019-05-20T05:05:37.372Z,99.993896
2019-05-20T05:06:43.032Z,99.993896
2019-05-20T05:07:52.577Z,99.993896
2019-05-20T05:09:02.144Z,99.993896
2019-05-20T05:10:11.729Z,99.993896
2019-05-20T05:11:21.322Z,99.993896
2019-05-20T05:12:30.850Z,99.993896
2019-05-20T05:13:40.394Z,99.993896
2019-05-20T05:14:49.917Z,99.993896
2019-05-20T05:15:59.427Z,99.993896
2019-05-20T05:17:08.995Z,99.993896
2019-05-20T05:18:18.631Z,99.993896
2019-05-20T05:19:28.165Z,99.993896
2019-05-20T05:20:37.698Z,99.993896
2019-05-20T05:21:47.256Z,99.993896
2019-05-20T05:22:56.806Z,99.993896
2019-05-20T05:24:06.350Z,99.993896
2019-05-20T05:25:15.902Z,99.993896
2019-05-20T05:26:25.498Z,99.993896
2019-05-20T05:27:35.023Z,99.993896
2019-05-20T05:28:44.564Z,99.993896
2019-05-20T05:29:54.118Z,99.993896
2019-05-20T05:31:03.670Z,99.993896
2019-05-20T05:32:13.214Z,99.993896
2019-05-20T05:33:22.755Z,99.993896
2019-05-20T05:34:32.286Z,99.993896
2019-05-20T05:35:52.583Z,99.993896
2019-05-20T05:36:52.407Z,99.993896
2019-05-20T05:38:02.627Z,99.993896
2019-05-20T05:39:11.483Z,99.993896
2019-05-20T05:40:21.024Z,99.993896
2019-05-20T05:41:30.687Z,99.993896
2019-05-20T05:42:40.199Z,99.993896
2019-05-20T05:43:49.720Z,99.993896
2019-05-20T05:44:59.265Z,99.993896
2019-05-20T05:46:08.785Z,99.993896
2019-05-20T05:47:18.359Z,99.993896
2019-05-20T05:48:27.904Z,99.993896
2019-05-20T05:49:37.462Z,99.993896
2019-05-20T05:50:46.979Z,99.993896
2019-05-20T05:51:56.533Z,99.993896
2019-05-20T05:53:06.076Z,99.993896
2019-05-20T05:54:15.595Z,99.993896
2019-05-20T05:55:25.154Z,99.993896
2019-05-20T05:56:34.688Z,99.993896
2019-05-20T05:57:44.261Z,99.749756
2019-05-20T05:58:53.792Z,99.804688
2019-05-20T06:00:03.359Z,99.597168
2019-05-20T06:01:12.859Z,99.395752
2019-05-20T06:02:22.418Z,99.139404
2019-05-20T06:03:31.964Z,99.139404
2019-05-20T06:04:41.491Z,99.035645
2019-05-20T06:05:51.111Z,99.035645
2019-05-20T06:07:01.533Z,98.931885
2019-05-20T06:08:11.078Z,98.931885
2019-05-20T06:09:20.579Z,98.828125
2019-05-20T06:10:30.097Z,98.931885
2019-05-20T06:11:40.594Z,99.035645
2019-05-20T06:12:50.198Z,99.035645
2019-05-20T06:13:59.719Z,98.931885
2019-05-20T06:15:09.251Z,98.931885
2019-05-20T06:16:35.207Z,98.931885
2019-05-20T06:17:29.291Z,99.035645
2019-05-20T06:18:38.820Z,99.139404
2019-05-20T06:19:48.340Z,99.237061
2019-05-20T06:20:57.841Z,99.34082
2019-05-20T06:22:07.434Z,99.34082
2019-05-20T06:23:18.000Z,99.34082
2019-05-20T06:24:27.503Z,99.237061
2019-05-20T06:25:37.018Z,99.237061
2019-05-20T06:26:46.534Z,99.237061
2019-05-20T06:27:56.119Z,99.139404
2019-05-20T06:29:05.626Z,99.139404
2019-05-20T06:30:15.141Z,99.139404
2019-05-20T06:31:24.635Z,99.139404
2019-05-20T06:32:34.175Z,99.237061
2019-05-20T06:33:43.691Z,99.34082
2019-05-20T06:34:53.205Z,99.44458
2019-05-20T06:36:02.780Z,99.44458
2019-05-20T06:37:12.300Z,99.44458
2019-05-20T06:38:21.813Z,99.44458
2019-05-20T06:39:31.374Z,99.34082
2019-05-20T06:40:40.896Z,99.139404
2019-05-20T06:41:50.407Z,99.237061
2019-05-20T06:42:59.977Z,99.34082
2019-05-20T06:44:09.506Z,99.34082
2019-05-20T06:45:19.030Z,99.44458
2019-05-20T06:46:28.540Z,99.34082
2019-05-20T06:47:38.107Z,99.34082
2019-05-20T06:48:47.611Z,99.645996
2019-05-20T06:49:57.129Z,99.853516
2019-05-20T06:51:06.645Z,99.993896
2019-05-20T06:52:16.192Z,99.993896
2019-05-20T06:53:26.708Z,99.993896
2019-05-20T06:54:36.233Z,99.993896
2019-05-20T06:55:45.750Z,99.993896
2019-05-20T06:56:55.294Z,99.993896
2019-05-20T06:58:04.822Z,99.993896
2019-05-20T06:59:14.339Z,99.993896
2019-05-20T07:00:23.848Z,99.993896
2019-05-20T07:01:33.373Z,99.993896
2019-05-20T07:02:42.970Z,99.993896
2019-05-20T07:03:52.505Z,99.993896
2019-05-20T07:05:02.028Z,99.993896
2019-05-20T07:06:11.563Z,99.993896
2019-05-20T07:07:21.543Z,99.993896
2019-05-20T07:08:30.640Z,99.993896
2019-05-20T07:09:40.185Z,99.993896
2019-05-20T07:10:49.714Z,99.993896
2019-05-20T07:11:59.252Z,99.993896
2019-05-20T07:13:08.789Z,99.993896
2019-05-20T07:14:19.307Z,99.993896
2019-05-20T07:15:28.834Z,99.993896
2019-05-20T07:16:38.368Z,99.993896
2019-05-20T07:17:47.934Z,99.993896
2019-05-20T07:18:57.468Z,99.993896
2019-05-20T07:20:07.014Z,99.993896
2019-05-20T07:21:16.534Z,99.993896
2019-05-20T07:22:26.095Z,99.993896
2019-05-20T07:23:35.626Z,99.993896
2019-05-20T07:24:45.148Z,99.993896
2019-05-20T07:25:54.686Z,99.993896
2019-05-20T07:27:04.217Z,99.993896
2019-05-20T07:28:13.783Z,99.993896
2019-05-20T07:29:23.299Z,99.993896
2019-05-20T07:30:33.828Z,99.993896
2019-05-20T07:31:43.401Z,99.993896
2019-05-20T07:32:52.984Z,99.993896
2019-05-20T07:34:02.506Z,99.993896
2019-05-20T07:35:26.248Z,99.993896
2019-05-20T07:36:22.562Z,99.993896
2019-05-20T07:37:32.730Z,99.993896
2019-05-20T07:38:41.749Z,99.993896
2019-05-20T07:39:51.272Z,99.993896
2019-05-20T07:41:00.799Z,99.993896
2019-05-20T07:42:10.331Z,99.993896
2019-05-20T07:43:19.903Z,99.993896
2019-05-20T07:44:29.442Z,99.993896
2019-05-20T07:45:39.064Z,99.993896
2019-05-20T07:46:48.617Z,99.993896
2019-05-20T07:47:58.192Z,99.993896
2019-05-20T07:49:07.756Z,99.993896
2019-05-20T07:50:17.263Z,99.993896
2019-05-20T07:51:26.786Z,99.993896
2019-05-20T07:52:36.356Z,99.993896
2019-05-20T07:53:45.907Z,99.993896
2019-05-20T07:54:55.429Z,99.993896
2019-05-20T07:56:04.964Z,99.993896
2019-05-20T07:57:14.488Z,99.993896
2019-05-20T07:58:24.046Z,99.993896
2019-05-20T07:59:33.583Z,99.993896
2019-05-20T08:00:43.155Z,99.993896
2019-05-20T08:01:52.695Z,99.993896
2019-05-20T08:03:02.259Z,99.993896
2019-05-20T08:04:11.769Z,99.993896
2019-05-20T08:05:21.308Z,99.993896
2019-05-20T08:06:31.839Z,99.993896
2019-05-20T08:07:51.665Z,99.993896
2019-05-20T08:08:51.939Z,99.993896
2019-05-20T08:10:01.472Z,99.993896
2019-05-20T08:11:11.006Z,99.993896
2019-05-20T08:12:20.541Z,99.993896
2019-05-20T08:13:30.123Z,99.993896
2019-05-20T08:14:39.652Z,99.993896
2019-05-20T08:15:49.168Z,99.993896
2019-05-20T08:16:58.712Z,99.993896
2019-05-20T08:18:08.263Z,99.993896
2019-05-20T08:19:17.793Z,99.993896
2019-05-20T08:20:27.323Z,99.993896
2019-05-20T08:21:36.857Z,99.993896
2019-05-20T08:22:46.400Z,99.993896
2019-05-20T08:23:55.950Z,99.993896
2019-05-20T08:25:05.517Z,99.993896
2019-05-20T08:26:15.000Z,99.993896
2019-05-20T08:27:24.548Z,99.993896
2019-05-20T08:28:34.114Z,99.993896
2019-05-20T08:29:43.637Z,99.993896
2019-05-20T08:30:53.164Z,99.993896
2019-05-20T08:32:02.780Z,99.993896
2019-05-20T08:33:12.300Z,99.993896
2019-05-20T08:34:21.852Z,99.993896
2019-05-20T08:35:31.360Z,99.993896
2019-05-20T08:36:40.879Z,99.993896
2019-05-20T08:37:50.417Z,99.908447
2019-05-20T08:38:59.979Z,99.908447
2019-05-20T08:40:09.501Z,99.908447
2019-05-20T08:41:19.019Z,99.804688
2019-05-20T08:42:28.589Z,99.908447
2019-05-20T08:43:38.152Z,99.993896
2019-05-20T08:44:47.692Z,99.804688
2019-05-20T08:45:57.222Z,99.700928
2019-05-20T08:47:06.768Z,99.700928
2019-05-20T08:48:16.357Z,99.804688
2019-05-20T08:49:26.011Z,99.700928
2019-05-20T08:50:35.410Z,99.804688
2019-05-20T08:51:44.952Z,99.804688
2019-05-20T08:52:54.487Z,99.658203
2019-05-20T08:54:04.042Z,99.755859
2019-05-20T08:55:13.582Z,99.755859
2019-05-20T08:56:23.112Z,99.658203
2019-05-20T08:57:32.638Z,99.450684
2019-05-20T08:58:42.196Z,99.291992
2019-05-20T08:59:51.735Z,99.346924
2019-05-20T09:01:01.254Z,99.249268
2019-05-20T09:02:10.769Z,99.041748
2019-05-20T09:03:20.298Z,98.944092
2019-05-20T09:04:29.882Z,98.944092
2019-05-20T09:05:39.531Z,98.638916
2019-05-20T09:06:48.960Z,98.638916
2019-05-20T09:08:03.648Z,98.431396
2019-05-20T09:09:12.084Z,98.431396
2019-05-20T09:10:18.571Z,98.535156
2019-05-20T09:11:28.020Z,98.535156
2019-05-20T09:12:37.548Z,98.327637
2019-05-20T09:13:47.187Z,98.431396
2019-05-20T09:14:56.722Z,98.431396
2019-05-20T09:16:06.260Z,98.388672
2019-05-20T09:17:15.806Z,98.327637
2019-05-20T09:18:25.350Z,97.924805
2019-05-20T09:19:34.930Z,98.181152
2019-05-20T09:20:44.469Z,98.284912
2019-05-20T09:21:54.031Z,98.284912
2019-05-20T09:23:03.510Z,98.284912
2019-05-20T09:24:13.087Z,98.284912
2019-05-20T09:25:23.591Z,98.083496
2019-05-20T09:26:33.112Z,98.181152
2019-05-20T09:27:42.669Z,97.875977
2019-05-20T09:28:52.235Z,98.083496
2019-05-20T09:30:02.513Z,98.181152
2019-05-20T09:31:11.338Z,98.284912
2019-05-20T09:32:20.893Z,97.979736
2019-05-20T09:33:30.439Z,98.083496
2019-05-20T09:34:41.088Z,98.181152
2019-05-20T09:35:50.657Z,98.083496
2019-05-20T09:37:00.186Z,97.979736
2019-05-20T09:38:19.244Z,98.083496
2019-05-20T09:39:20.232Z,98.284912
2019-05-20T09:40:29.748Z,98.181152
2019-05-20T09:41:39.287Z,98.181152
2019-05-20T09:42:48.819Z,98.284912
2019-05-20T09:43:58.396Z,98.181152
2019-05-20T09:45:07.946Z,98.284912
2019-05-20T09:46:17.459Z,98.388672
2019-05-20T09:47:27.037Z,98.590088
2019-05-20T09:48:36.548Z,98.590088
2019-05-20T09:49:46.252Z,98.791504
2019-05-20T09:50:56.797Z,98.693848
2019-05-20T09:52:06.401Z,98.693848
2019-05-20T09:53:15.936Z,98.791504
2019-05-20T09:54:25.494Z,98.791504
2019-05-20T09:55:36.067Z,98.895264
2019-05-20T09:56:45.848Z,98.895264
2019-05-20T09:57:55.726Z,98.895264
2019-05-20T09:59:07.208Z,98.791504
2019-05-20T10:00:16.779Z,98.693848
2019-05-20T10:01:26.314Z,98.181152
2019-05-20T10:02:38.141Z,97.979736
2019-05-20T10:03:45.392Z,97.979736
2019-05-20T10:04:54.962Z,97.979736
2019-05-20T10:06:04.521Z,97.77832
2019-05-20T10:07:14.038Z,97.875977
2019-05-20T10:08:36.822Z,97.77832
2019-05-20T10:09:34.107Z,97.875977
2019-05-20T10:10:43.643Z,97.674561
2019-05-20T10:11:53.185Z,97.674561
2019-05-20T10:13:02.773Z,97.77832
2019-05-20T10:14:13.348Z,97.467041
2019-05-20T10:15:22.900Z,97.161865
2019-05-20T10:16:32.427Z,96.655273
2019-05-20T10:17:41.942Z,96.508789
2019-05-20T10:18:55.089Z,96.813965
2019-05-20T10:20:01.041Z,97.015381
2019-05-20T10:21:10.558Z,96.710205
2019-05-20T10:22:20.104Z,96.203613
2019-05-20T10:23:29.642Z,96.508789
2019-05-20T10:24:39.190Z,96.258545
2019-05-20T10:25:48.723Z,95.849609
2019-05-20T10:26:58.287Z,95.953369
2019-05-20T10:28:07.835Z,95.239258
2019-05-20T10:29:17.381Z,95.446777
2019-05-20T10:30:26.901Z,94.732666
2019-05-20T10:31:36.471Z,94.732666
2019-05-20T10:32:45.979Z,94.995117
2019-05-20T10:33:55.542Z,94.281006
2019-05-20T10:35:05.109Z,93.97583
2019-05-20T10:36:14.656Z,93.87207
2019-05-20T10:37:24.213Z,93.933105
2019-05-20T10:38:33.733Z,93.933105
2019-05-20T10:39:44.294Z,93.481445
2019-05-20T10:40:53.817Z,92.565918
2019-05-20T10:42:03.422Z,92.974854
2019-05-20T10:43:12.913Z,92.364502
2019-05-20T10:44:22.434Z,92.523193
2019-05-20T10:45:31.971Z,91.973877
2019-05-20T10:46:41.505Z,92.175293
2019-05-20T10:47:51.081Z,90.960693
2019-05-20T10:49:00.587Z,91.870117
2019-05-20T10:50:10.179Z,91.320801
2019-05-20T10:51:19.672Z,90.655518
2019-05-20T10:52:29.225Z,90.655518
2019-05-20T10:53:38.777Z,90.655518
2019-05-20T10:54:48.320Z,91.259766
2019-05-20T10:55:58.437Z,90.960693
2019-05-20T10:57:07.473Z,91.320801
2019-05-20T10:58:17.053Z,90.307617
2019-05-20T10:59:26.582Z,89.697266
2019-05-20T11:00:36.152Z,90.203857
2019-05-20T11:01:45.717Z,90.362549
2019-05-20T11:02:55.262Z,90.612793
2019-05-20T11:04:04.844Z,90.002441
2019-05-20T11:05:14.398Z,90.612793
2019-05-20T11:06:23.942Z,90.307617
2019-05-20T11:07:33.504Z,90.509033
2019-05-20T11:08:43.049Z,90.612793
2019-05-20T11:09:52.694Z,91.424561
2019-05-20T11:11:02.132Z,91.015625
2019-05-20T11:12:11.677Z,90.960693
2019-05-20T11:13:21.217Z,90.856934
2019-05-20T11:14:30.805Z,90.960693
2019-05-20T11:15:40.356Z,90.856934
2019-05-20T11:16:49.887Z,90.814209
2019-05-20T11:17:59.498Z,90.917969
2019-05-20T11:19:09.024Z,90.307617
2019-05-20T11:20:18.630Z,90.106201
2019-05-20T11:21:28.155Z,90.710449
2019-05-20T11:22:37.690Z,90.106201
2019-05-20T11:23:47.214Z,90.814209
2019-05-20T11:24:56.796Z,90.612793
2019-05-20T11:26:06.348Z,90.106201
2019-05-20T11:27:15.883Z,90.710449
2019-05-20T11:28:25.430Z,90.405273
2019-05-20T11:29:34.963Z,90.106201
2019-05-20T11:30:44.590Z,90.106201
2019-05-20T11:31:54.126Z,91.119385
2019-05-20T11:33:03.683Z,90.710449
2019-05-20T11:34:13.216Z,90.509033
2019-05-20T11:35:22.826Z,90.350342
2019-05-20T11:36:32.328Z,91.05835
2019-05-20T11:37:41.860Z,90.447998
2019-05-20T11:38:51.397Z,90.551758
2019-05-20T11:40:01.008Z,90.960693
2019-05-20T11:41:10.507Z,91.05835
2019-05-20T11:42:20.024Z,91.363525
2019-05-20T11:43:29.570Z,91.162109
2019-05-20T11:44:39.115Z,90.856934
2019-05-20T11:45:48.679Z,90.753174
2019-05-20T11:46:58.282Z,90.917969
2019-05-20T11:48:07.813Z,90.447998
2019-05-20T11:49:17.384Z,90.710449
2019-05-20T11:50:26.905Z,90.612793
2019-05-20T11:51:36.463Z,90.509033
2019-05-20T11:52:45.990Z,90.612793
2019-05-20T11:53:55.552Z,90.307617
2019-05-20T11:55:05.069Z,90.612793
2019-05-20T11:56:14.677Z,89.898682
2019-05-20T11:57:24.172Z,90.307617
2019-05-20T11:58:33.721Z,89.898682
2019-05-20T11:59:43.266Z,89.898682
2019-05-20T12:00:52.807Z,89.801025
2019-05-20T12:02:03.970Z,89.147949
2019-05-20T12:03:12.862Z,88.684082
2019-05-20T12:04:22.429Z,89.453125
2019-05-20T12:05:31.966Z,89.453125
2019-05-20T12:06:41.599Z,89.898682
2019-05-20T12:07:51.130Z,90.002441
2019-05-20T12:09:00.653Z,90.710449
2019-05-20T12:10:10.238Z,90.917969
2019-05-20T12:11:19.708Z,91.05835
2019-05-20T12:12:29.266Z,91.772461
2019-05-20T12:13:38.812Z,91.467285
2019-05-20T12:14:48.397Z,91.772461
2019-05-20T12:15:57.883Z,92.987061
2019-05-20T12:17:07.464Z,92.480469
2019-05-20T12:18:16.995Z,92.584229
2019-05-20T12:19:26.520Z,92.584229
2019-05-20T12:20:36.049Z,92.785645
2019-05-20T12:21:45.580Z,92.480469
2019-05-20T12:22:55.183Z,92.120361
2019-05-20T12:24:04.721Z,92.626953
2019-05-20T12:25:14.249Z,92.724609
2019-05-20T12:26:23.789Z,93.237305
2019-05-20T12:27:33.354Z,93.438721
2019-05-20T12:28:42.876Z,93.481445
2019-05-20T12:29:52.423Z,93.07251
2019-05-20T12:31:02.050Z,92.816162
2019-05-20T12:32:11.527Z,93.731689
2019-05-20T12:33:21.082Z,94.036865
2019-05-20T12:34:30.610Z,94.439697
2019-05-20T12:35:40.151Z,94.342041
2019-05-20T12:36:49.686Z,94.744873
2019-05-20T12:37:59.272Z,94.891357
2019-05-20T12:39:08.782Z,94.281006
2019-05-20T12:40:18.312Z,94.384766
2019-05-20T12:41:27.893Z,94.482422
2019-05-20T12:42:37.497Z,95.092773
2019-05-20T12:43:47.019Z,94.42749
2019-05-20T12:44:57.537Z,94.934082
2019-05-20T12:46:07.057Z,95.544434
2019-05-20T12:47:16.597Z,95.446777
2019-05-20T12:48:26.150Z,95.184326
2019-05-20T12:49:35.813Z,95.288086
2019-05-20T12:50:45.221Z,95.385742
2019-05-20T12:51:54.750Z,95.794678
2019-05-20T12:53:04.318Z,96.203613
2019-05-20T12:54:13.853Z,96.203613
2019-05-20T12:55:23.377Z,96.563721
2019-05-20T12:56:32.903Z,96.362305
2019-05-20T12:57:42.459Z,95.898438
2019-05-20T12:58:52.847Z,95.690918
2019-05-20T13:00:02.359Z,95.593262
2019-05-20T13:01:11.906Z,96.203613
2019-05-20T13:02:21.465Z,96.203613
2019-05-20T13:03:30.998Z,96.203613
2019-05-20T13:04:40.526Z,95.794678
2019-05-20T13:05:50.042Z,96.099854
2019-05-20T13:06:59.579Z,95.898438
2019-05-20T13:08:09.182Z,96.508789
2019-05-20T13:09:18.721Z,95.794678
2019-05-20T13:10:31.532Z,96.30127
2019-05-20T13:11:37.761Z,96.30127
2019-05-20T13:12:47.308Z,96.508789
2019-05-20T13:13:56.882Z,96.405029
2019-05-20T13:15:06.416Z,96.453857
2019-05-20T13:16:15.952Z,96.655273